Huvudsida
METAR-TAF:

METAR-TAF

Flygplatser :

Forlì, Italien

latitud: 44-12N, longitud: 012-04E, höjd: 27 m

Aktuellt väderrapport

Denna rapport gjordes för 58 minuter sedan, klockan 13:50 UTC
Vind 6 kt från nord/nordost
Temperatur 33°C
Fuktighet 46%
Tryck 1021 hPa
Sikt 10 km eller mer
Inga moln under 1 500 m eller inga cumulonimbus

METAR: LIPK 261350Z 02006KT CAVOK 33/20 Q1021

Tid: 16:48 (14:48 UTC)


TAF: saknas

Aktuella väderrapporter och prognoser från 4000 flygplatser (METAR- och TAF-rapporter).

De tillgängliga stationerna syns som gula och röda prickar på kartan.

För musen över prickarna för att se namnen på stationerna.

Klicka sedan för att få väderrapporter och prognoser.

För att ändra kartan: Klicka på de gröna knapparna med ett svart kors på för att zooma in; den gröna knappen med ett streck på för att zooma ut; eller på de gröna pilarna för angränsande kartor.


METAR-TAF: